Andrews, Indiana
Current Conditions -  °F | °C
As of 4:55 PM on Friday 28 Nov 2014 (Local Time) from KHHG Reporting Station
Scattered Clouds Scattered Clouds  
Wind Chill: 23°   Ceiling: Unl
Heat Index: 30°   Visibility: 10mi
Dew Point: 18°   Wind: 8mph
Humidity: 61%   Direction: 140°SE
Pressure: 30.09"   Gusts: NA
Location:  40.86°N, 85.6°W
Report Text: KHHG 282155Z AUTO 14007KT 130V190 10SM SCT110 M01/M08 A3009 RMK AO2 T10101077
Loading
Personal Weather Stations






























Interactive Weather Map New forecast layout! Learn more

10-Day Weather Forecast

Advertisements
Track Severe Weather on mobile